This is the latest recevied weather packets stored in our database for station/object OM0AGP-15. If no packets are shown the sender has not sent any weather packets the latest 10 day(s).
| Time | Temp. | Humidity | Pressure | Rain* | Wind** | Luminosity | Snow |
|---|---|---|---|---|---|---|---|
| 1787500694 | 17.78° C | 45% | 1020.9 hPa | - | - | - | - |
| 1787499794 | 17.78° C | 45% | 1020.8 hPa | - | - | - | - |
| 1787498893 | 18.33° C | 45% | 1020.8 hPa | - | - | - | - |
| 1787497993 | 18.33° C | 42% | 1020.7 hPa | - | - | - | - |
| 1787497093 | 18.33° C | 44% | 1020.8 hPa | - | - | - | - |
| 1787496193 | 18.33° C | 43% | 1020.7 hPa | - | - | - | - |
| 1787495293 | 18.33° C | 42% | 1020.7 hPa | - | - | - | - |
| 1787494393 | 18.89° C | 40% | 1020.7 hPa | - | - | - | - |
| 1787493493 | 18.89° C | 39% | 1020.7 hPa | - | - | - | - |
| 1787492593 | 19.44° C | 38% | 1020.6 hPa | - | - | - | - |
| 1787491693 | 18.89° C | 38% | 1020.6 hPa | - | - | - | - |
| 1787490793 | 19.44° C | 39% | 1020.7 hPa | - | - | - | - |
| 1787489893 | 19.44° C | 41% | 1020.6 hPa | - | - | - | - |
| 1787488993 | 19.44° C | 40% | 1020.7 hPa | - | - | - | - |
| 1787488093 | 19.44° C | 40% | 1020.6 hPa | - | - | - | - |
| 1787487193 | 20° C | 37% | 1020.7 hPa | - | - | - | - |
| 1787486293 | 20.56° C | 34% | 1020.6 hPa | - | - | - | - |
| 1787485393 | 20.56° C | 34% | 1020.6 hPa | - | - | - | - |
| 1787484492 | 20° C | 37% | 1020.8 hPa | - | - | - | - |
| 1787483592 | 18.89° C | 39% | 1020.8 hPa | - | - | - | - |
| 1787482692 | 18.33° C | 44% | 1021.1 hPa | - | - | - | - |
| 1787481792 | 18.33° C | 42% | 1021 hPa | - | - | - | - |
| 1787480892 | 18.33° C | 44% | 1021.2 hPa | - | - | - | - |
| 1787479992 | 18.33° C | 44% | 1021.2 hPa | - | - | - | - |
| 1787479092 | 17.78° C | 46% | 1021.3 hPa | - | - | - | - |
* Rain since midnight (hover to see other rain measurements)
** Current wind speed in m/s (hover to see current wind gust speed)